マルセイユ の空港の天気 - METARとTAF

マルセイユ・プロヴァンス空港 ( LFML / MRS ) - フランス マルセイユ
飛行場実況気象(Metar)
観測時間07/20 14:00 CEST (07/20 12:00 UTC)
風向・風速南 6m/s
視程10km以上
天気現象
なし
気温31℃
湿度40%
気圧1017hPa
METARLFML 201200Z AUTO 17012KT 140V200 CAVOK 31/16 Q1017 NOSIG
過去の天気等 Google飛行場航空写真 Wunderground天気予報

過去48時間のMETAR

飛行場予報(TAF)
発表時間: 7/20 11:19 CEST (7/20 09:19 UTC)
予報対象時間: 20日11時 CEST ~ 21日17時 CEST
風向・風速西 5m/s
視程10km以上
少しの雲 雲底高度 760m
全天の4割程度の雲 雲底高度 7920m
20日13時 CEST ~ 20日14時 CEST に徐々に
風向・風速南 7m/s
視程10km以上
なし
20日19時 CEST ~ 20日21時 CEST に徐々に
風向・風速不定 2m/s
21日9時 CEST ~ 21日11時 CEST に徐々に
風向・風速西 4m/s
21日14時 CEST ~ 21日17時 CEST に一時的に
風向・風速西 7m/s
TAF AMD LFML 200919Z 2009/2115 26010KT 9999 FEW025 SCT260 TX31/2012Z TN20/2103Z
BECMG 2011/2012 18013KT CAVOK
BECMG 2017/2019 VRB03KT
BECMG 2107/2109 26007KT
TEMPO 2112/2115 26013KT